createdAt,value
2018-07-15T00:05:53.326Z,97436.47
2018-07-15T03:03:42.494Z,97318.07
2018-07-15T04:00:22.026Z,97327.67
2018-07-15T04:44:06.532Z,97325.89
2018-07-15T09:35:18.607Z,97399.02
2018-07-15T09:37:49.579Z,97392.94
2018-07-15T11:15:46.222Z,97350.77
2018-07-15T11:44:05.407Z,97325.37
2018-07-15T11:46:46.871Z,97296.14
2018-07-15T12:28:00.799Z,97301.43
2018-07-15T18:05:59.617Z,97235.73
2018-07-15T20:53:03.819Z,97355.19
2018-07-15T20:55:36.270Z,97353.91
2018-07-15T20:58:08.905Z,97352.55
2018-07-15T21:01:00.832Z,97353.86
2018-07-15T21:03:33.607Z,97357.99
2018-07-15T21:06:05.549Z,97354.87
2018-07-15T21:08:42.690Z,97351.39
2018-07-15T21:11:50.426Z,97350.11
2018-07-15T21:14:26.191Z,97354.94
2018-07-15T21:17:36.057Z,97361.30
2018-07-15T21:20:19.982Z,97363.05
2018-07-15T21:22:55.671Z,97369.55
2018-07-15T21:25:56.434Z,97367.45
2018-07-15T21:28:30.059Z,97373.42
2018-07-15T21:31:01.689Z,97378.02
2018-07-15T21:33:33.390Z,97385.17
2018-07-15T21:36:05.450Z,97383.72
2018-07-15T21:38:37.130Z,97390.33
2018-07-15T21:41:09.034Z,97390.47
2018-07-15T21:43:42.961Z,97387.55
2018-07-15T21:46:55.082Z,97386.11
2018-07-15T21:49:34.196Z,97392.52
2018-07-15T21:52:15.361Z,97398.70
2018-07-15T21:54:48.191Z,97394.41
2018-07-15T21:57:21.621Z,97395.11
2018-07-15T21:59:53.433Z,97398.32
2018-07-15T22:02:36.843Z,97401.48
2018-07-15T22:05:11.527Z,97400.27
2018-07-15T22:07:59.779Z,97405.23
2018-07-15T22:10:36.526Z,97406.58
2018-07-15T22:13:08.346Z,97410.40
2018-07-15T22:15:44.410Z,97406.06
2018-07-15T22:18:17.416Z,97404.44
2018-07-15T22:20:48.654Z,97401.36
2018-07-15T22:23:27.447Z,97406.30
2018-07-15T22:26:00.780Z,97411.11
2018-07-15T22:28:33.039Z,97412.98
2018-07-15T22:31:04.329Z,97410.50
2018-07-15T22:33:35.399Z,97414.61
2018-07-15T22:36:08.432Z,97413.55
2018-07-15T22:38:40.289Z,97410.42
2018-07-15T22:41:12.063Z,97405.45
2018-07-15T22:44:01.545Z,97407.91
2018-07-15T22:46:38.148Z,97405.67
2018-07-15T22:49:12.894Z,97407.72
2018-07-15T22:51:52.705Z,97408.56
2018-07-15T22:54:25.336Z,97406.61
2018-07-15T22:56:57.962Z,97407.30
2018-07-15T22:59:29.007Z,97406.92
2018-07-15T23:02:00.709Z,97406.47
2018-07-15T23:05:53.943Z,97405.34
2018-07-15T23:08:27.281Z,97399.73
2018-07-15T23:11:11.358Z,97396.48
2018-07-15T23:13:44.404Z,97394.18
2018-07-15T23:16:16.100Z,97399.06
2018-07-15T23:18:48.780Z,97399.55
2018-07-15T23:21:20.679Z,97399.73
2018-07-15T23:23:52.484Z,97397.78
2018-07-15T23:26:24.294Z,97395.62
2018-07-15T23:28:56.137Z,97396.51
2018-07-15T23:31:27.819Z,97396.73
2018-07-15T23:33:59.661Z,97391.08
2018-07-15T23:37:30.128Z,97390.70
2018-07-15T23:40:03.832Z,97383.80
2018-07-15T23:42:36.058Z,97380.13
2018-07-15T23:45:08.255Z,97381.41
2018-07-15T23:47:39.802Z,97390.06
2018-07-15T23:50:11.231Z,97388.84
2018-07-15T23:52:42.889Z,97378.75
2018-07-15T23:55:15.955Z,97382.09
2018-07-15T23:57:48.463Z,97384.09
